createdAt,value
2018-02-04T00:01:44.068Z,3.00
2018-02-04T00:04:13.715Z,3.10
2018-02-04T00:06:42.564Z,3.00
2018-02-04T00:09:12.158Z,2.90
2018-02-04T00:11:41.785Z,2.90
2018-02-04T00:14:12.338Z,3.00
2018-02-04T00:16:41.219Z,2.90
2018-02-04T00:19:10.090Z,3.00
2018-02-04T00:21:39.726Z,3.20
2018-02-04T00:24:08.548Z,3.20
2018-02-04T00:26:37.400Z,3.30
2018-02-04T00:29:06.247Z,3.20
2018-02-04T00:31:35.874Z,3.20
2018-02-04T00:34:04.722Z,3.10
2018-02-04T00:36:33.581Z,3.20
2018-02-04T00:39:02.418Z,3.10
2018-02-04T00:41:31.266Z,3.20
2018-02-04T00:44:00.108Z,3.20
2018-02-04T00:46:28.970Z,3.10
2018-02-04T00:48:58.605Z,3.10
2018-02-04T00:51:27.446Z,3.10
2018-02-04T00:53:56.298Z,3.20
2018-02-04T00:56:25.478Z,3.20
2018-02-04T00:58:54.386Z,3.30
2018-02-04T01:01:23.254Z,3.20
2018-02-04T01:03:52.866Z,2.90
2018-02-04T01:06:21.708Z,2.90
2018-02-04T01:08:50.556Z,2.90
2018-02-04T01:11:19.401Z,3.00
2018-02-04T01:13:49.015Z,3.00
2018-02-04T01:16:18.626Z,3.00
2018-02-04T01:18:48.254Z,2.90
2018-02-04T01:21:17.073Z,2.80
2018-02-04T01:23:45.939Z,2.90
2018-02-04T01:26:14.769Z,2.80
2018-02-04T01:28:43.614Z,2.80
2018-02-04T01:31:12.476Z,2.80
2018-02-04T01:33:42.087Z,2.90
2018-02-04T01:36:11.689Z,2.90
2018-02-04T01:38:41.302Z,2.90
2018-02-04T01:41:10.935Z,2.90
2018-02-04T01:43:39.786Z,2.80
2018-02-04T01:46:08.623Z,2.90
2018-02-04T01:48:37.473Z,2.90
2018-02-04T01:51:06.330Z,2.80
2018-02-04T01:53:35.186Z,2.80
2018-02-04T01:56:04.067Z,2.70
2018-02-04T01:58:32.949Z,2.60
2018-02-04T02:01:01.809Z,2.60
2018-02-04T02:03:30.786Z,2.60
2018-02-04T02:05:59.647Z,2.60
2018-02-04T02:08:28.478Z,2.60
2018-02-04T02:10:57.357Z,2.60
2018-02-04T02:13:26.965Z,2.60
2018-02-04T02:15:56.590Z,2.50
2018-02-04T02:18:26.193Z,2.60
2018-02-04T02:20:55.824Z,2.60
2018-02-04T02:23:24.656Z,2.50
2018-02-04T02:25:53.519Z,2.60
2018-02-04T02:28:22.397Z,2.60
2018-02-04T02:30:51.240Z,2.50
2018-02-04T02:33:20.084Z,2.50
2018-02-04T02:35:48.945Z,2.50
2018-02-04T02:38:18.575Z,2.50
2018-02-04T02:40:47.541Z,2.40
2018-02-04T02:43:17.166Z,2.30
2018-02-04T02:45:45.998Z,2.30
2018-02-04T02:48:14.853Z,2.40
2018-02-04T02:50:44.462Z,2.40
2018-02-04T02:53:14.055Z,2.30
2018-02-04T02:55:42.902Z,2.40
2018-02-04T02:58:11.761Z,2.40
2018-02-04T03:00:41.370Z,2.40
2018-02-04T03:03:11.002Z,2.50
2018-02-04T03:05:39.858Z,2.40
2018-02-04T03:08:09.497Z,2.40
2018-02-04T03:10:38.325Z,2.30
2018-02-04T03:13:07.183Z,2.50
2018-02-04T03:15:36.015Z,2.50
2018-02-04T03:18:04.861Z,2.40
2018-02-04T03:20:33.714Z,2.50
2018-02-04T03:23:03.350Z,2.50
2018-02-04T03:25:33.026Z,2.50
2018-02-04T03:28:02.655Z,2.60
2018-02-04T03:30:31.485Z,2.50
2018-02-04T03:33:00.346Z,2.60
2018-02-04T03:35:29.205Z,2.50
2018-02-04T03:37:58.815Z,2.50
2018-02-04T03:40:28.450Z,2.50
2018-02-04T03:42:57.416Z,2.50
2018-02-04T03:45:27.012Z,2.50
2018-02-04T03:47:55.853Z,2.40
2018-02-04T03:50:24.738Z,2.50
2018-02-04T03:52:53.549Z,2.40
2018-02-04T03:55:22.438Z,2.40
2018-02-04T03:57:51.297Z,2.40
2018-02-04T04:00:20.117Z,2.40
2018-02-04T04:02:48.967Z,2.50
2018-02-04T04:05:18.586Z,2.50
2018-02-04T04:07:47.433Z,2.50
2018-02-04T04:10:16.278Z,2.50
2018-02-04T04:12:45.181Z,2.50
2018-02-04T04:15:14.030Z,2.50
2018-02-04T04:17:42.863Z,2.50
2018-02-04T04:20:11.686Z,2.50
2018-02-04T04:22:40.562Z,2.60
2018-02-04T04:25:10.425Z,2.60
2018-02-04T04:27:39.279Z,2.50
2018-02-04T04:30:08.925Z,2.40
2018-02-04T04:32:37.792Z,2.40
2018-02-04T04:35:07.392Z,2.40
2018-02-04T04:37:37.010Z,2.30
2018-02-04T04:40:06.610Z,2.40
2018-02-04T04:42:35.597Z,2.30
2018-02-04T04:45:05.237Z,2.40
2018-02-04T04:47:34.844Z,2.40
2018-02-04T04:50:04.466Z,2.40
2018-02-04T04:52:33.319Z,2.30
2018-02-04T04:55:02.978Z,2.30
2018-02-04T04:57:31.825Z,2.30
2018-02-04T05:00:01.446Z,2.30
2018-02-04T05:02:30.300Z,2.30
2018-02-04T05:04:59.146Z,2.30
2018-02-04T05:07:28.024Z,2.40
2018-02-04T05:09:56.882Z,2.40
2018-02-04T05:12:26.493Z,2.40
2018-02-04T05:14:55.313Z,2.30
2018-02-04T05:17:24.166Z,2.40
2018-02-04T05:19:52.999Z,2.40
2018-02-04T05:22:21.830Z,2.30
2018-02-04T05:24:50.668Z,2.30
2018-02-04T05:27:19.516Z,2.30
2018-02-04T05:29:48.353Z,2.30
2018-02-04T05:32:17.206Z,2.40
2018-02-04T05:34:46.809Z,2.40
2018-02-04T05:37:15.662Z,2.30
2018-02-04T05:39:44.500Z,2.30
2018-02-04T05:42:14.104Z,2.30
2018-02-04T05:44:42.930Z,2.30
2018-02-04T05:47:11.775Z,2.40
2018-02-04T05:49:40.756Z,2.40
2018-02-04T05:52:09.565Z,2.40
2018-02-04T05:54:38.407Z,2.40
2018-02-04T05:57:07.262Z,2.50
2018-02-04T05:59:36.879Z,2.40
2018-02-04T06:02:05.754Z,2.40
2018-02-04T06:04:35.391Z,2.30
2018-02-04T06:07:04.215Z,2.30
2018-02-04T06:09:33.054Z,2.30
2018-02-04T06:12:02.673Z,2.40
2018-02-04T06:14:31.502Z,2.40
2018-02-04T06:17:00.358Z,2.40
2018-02-04T06:19:29.193Z,2.40
2018-02-04T06:21:58.038Z,2.50
2018-02-04T06:24:26.969Z,2.50
2018-02-04T06:26:55.806Z,2.50
2018-02-04T06:29:24.666Z,2.50
2018-02-04T06:31:53.454Z,2.50
2018-02-04T06:34:23.053Z,2.50
2018-02-04T06:36:51.890Z,2.40
2018-02-04T06:39:21.486Z,2.50
2018-02-04T06:41:50.293Z,2.50
2018-02-04T06:44:19.137Z,2.60
2018-02-04T06:46:48.775Z,2.50
2018-02-04T06:49:17.609Z,2.40
2018-02-04T06:51:47.198Z,2.50
2018-02-04T06:54:16.045Z,2.50
2018-02-04T06:56:44.869Z,2.50
2018-02-04T06:59:13.724Z,2.60
2018-02-04T07:01:42.548Z,2.60
2018-02-04T07:04:11.425Z,2.60
2018-02-04T07:06:40.329Z,2.60
2018-02-04T07:09:09.134Z,2.50
2018-02-04T07:11:38.007Z,2.60
2018-02-04T07:14:06.842Z,2.50
2018-02-04T07:16:35.726Z,2.50
2018-02-04T07:19:04.550Z,2.50
2018-02-04T07:21:33.404Z,2.40
2018-02-04T07:24:02.986Z,2.50
2018-02-04T07:26:33.319Z,2.40
2018-02-04T07:29:02.954Z,2.40
2018-02-04T07:31:31.773Z,2.40
2018-02-04T07:34:00.634Z,2.30
2018-02-04T07:36:29.488Z,2.20
2018-02-04T07:38:58.315Z,2.20
2018-02-04T07:41:27.150Z,2.20
2018-02-04T07:43:56.094Z,2.20
2018-02-04T07:46:24.933Z,2.30
2018-02-04T07:48:54.235Z,2.40
2018-02-04T07:51:23.063Z,2.40
2018-02-04T07:53:53.458Z,2.50
2018-02-04T07:56:26.521Z,2.60
2018-02-04T07:58:55.351Z,2.70
2018-02-04T08:01:24.210Z,2.70
2018-02-04T08:03:53.014Z,2.80
2018-02-04T08:06:21.879Z,2.90
2018-02-04T08:08:50.707Z,3.00
2018-02-04T08:11:20.520Z,3.10
2018-02-04T08:13:49.355Z,3.10
2018-02-04T08:16:18.974Z,3.20
2018-02-04T08:18:47.790Z,3.10
2018-02-04T08:21:16.666Z,3.30
2018-02-04T08:23:45.469Z,3.40
2018-02-04T08:26:14.309Z,3.50
2018-02-04T08:28:43.924Z,3.50
2018-02-04T08:31:13.514Z,3.60
2018-02-04T08:33:43.123Z,3.60
2018-02-04T08:36:12.718Z,3.60
2018-02-04T08:38:41.594Z,3.60
2018-02-04T08:41:10.434Z,3.70
2018-02-04T08:43:40.978Z,3.70
2018-02-04T08:46:09.804Z,3.60
2018-02-04T08:48:41.279Z,3.50
2018-02-04T08:51:10.150Z,3.50
2018-02-04T08:53:38.991Z,3.40
2018-02-04T08:56:07.841Z,3.40
2018-02-04T08:58:36.702Z,3.30
2018-02-04T09:01:05.575Z,3.30
2018-02-04T09:03:35.155Z,3.20
2018-02-04T09:06:04.025Z,3.10
2018-02-04T09:08:32.861Z,3.20
2018-02-04T09:11:02.498Z,3.10
2018-02-04T09:13:31.346Z,3.00
2018-02-04T09:16:00.992Z,3.00
2018-02-04T09:18:29.846Z,2.90
2018-02-04T09:20:59.469Z,2.90
2018-02-04T09:23:29.089Z,2.90
2018-02-04T09:25:57.985Z,2.80
2018-02-04T09:28:26.817Z,2.90
2018-02-04T09:30:55.670Z,2.90
2018-02-04T09:33:24.508Z,2.90
2018-02-04T09:35:53.355Z,2.90
2018-02-04T09:38:22.214Z,2.90
2018-02-04T09:40:52.227Z,2.90
2018-02-04T09:43:21.103Z,3.00
2018-02-04T09:45:50.746Z,3.00
2018-02-04T09:48:19.597Z,3.00
2018-02-04T09:50:48.457Z,3.00
2018-02-04T09:53:17.285Z,3.10
2018-02-04T09:55:46.173Z,3.10
2018-02-04T09:58:15.066Z,3.10
2018-02-04T10:00:44.158Z,3.00
2018-02-04T10:03:12.998Z,3.00
2018-02-04T10:05:41.835Z,3.00
2018-02-04T10:08:11.458Z,3.20
2018-02-04T10:10:40.296Z,3.20
2018-02-04T10:13:09.921Z,3.50
2018-02-04T10:15:38.779Z,3.50
2018-02-04T10:18:07.619Z,3.80
2018-02-04T10:20:36.465Z,4.00
2018-02-04T10:23:05.310Z,4.30
2018-02-04T10:25:34.190Z,4.50
2018-02-04T10:28:03.160Z,4.70
2018-02-04T10:30:32.790Z,4.80
2018-02-04T10:33:01.657Z,4.70
2018-02-04T10:35:31.279Z,6.40
2018-02-04T10:38:00.131Z,6.40
2018-02-04T10:40:29.121Z,7.20
2018-02-04T10:42:58.734Z,8.60
2018-02-04T10:45:28.381Z,9.70
2018-02-04T10:47:57.207Z,9.60
2018-02-04T10:50:26.058Z,10.60
2018-02-04T10:52:54.904Z,11.60
2018-02-04T10:55:23.722Z,12.10
2018-02-04T10:57:52.582Z,12.90
2018-02-04T11:00:22.186Z,12.80
2018-02-04T11:02:51.838Z,11.80
2018-02-04T11:05:20.686Z,11.80
2018-02-04T11:07:49.593Z,11.20
2018-02-04T11:10:18.447Z,11.20
2018-02-04T11:12:49.005Z,10.50
2018-02-04T11:15:18.599Z,11.30
2018-02-04T11:17:48.250Z,12.60
2018-02-04T11:20:17.123Z,12.50
2018-02-04T11:22:45.979Z,13.00
2018-02-04T11:25:14.872Z,11.90
2018-02-04T11:27:44.502Z,9.20
2018-02-04T11:30:13.344Z,9.20
2018-02-04T11:32:42.196Z,8.80
2018-02-04T11:35:11.051Z,8.70
2018-02-04T11:37:40.681Z,7.70
2018-02-04T11:40:10.533Z,7.60
2018-02-04T11:42:39.362Z,6.90
2018-02-04T11:45:08.990Z,5.70
2018-02-04T11:47:37.837Z,5.60
2018-02-04T11:50:06.699Z,5.30
2018-02-04T11:52:35.539Z,5.30
2018-02-04T11:55:05.167Z,6.20
2018-02-04T11:57:34.045Z,6.10
2018-02-04T12:00:02.919Z,6.70
2018-02-04T12:02:32.531Z,7.20
2018-02-04T12:05:02.163Z,8.10
2018-02-04T12:07:31.006Z,8.10
2018-02-04T12:09:59.847Z,8.70
2018-02-04T12:12:28.733Z,8.70
2018-02-04T12:14:58.318Z,9.20
2018-02-04T12:17:27.953Z,8.80
2018-02-04T12:19:57.084Z,8.80
2018-02-04T12:22:25.955Z,8.00
2018-02-04T12:24:54.806Z,7.00
2018-02-04T12:27:23.661Z,6.20
2018-02-04T12:29:52.517Z,5.60
2018-02-04T12:32:21.358Z,5.20
2018-02-04T12:34:50.966Z,4.90
2018-02-04T12:37:20.608Z,4.70
2018-02-04T12:39:50.237Z,4.50
2018-02-04T12:42:19.067Z,4.40
2018-02-04T12:44:48.704Z,4.20
2018-02-04T12:47:17.612Z,4.10
2018-02-04T12:49:46.494Z,4.10
2018-02-04T12:52:15.325Z,4.10
2018-02-04T12:54:44.186Z,4.10
2018-02-04T12:57:13.027Z,4.20
2018-02-04T12:59:42.678Z,4.10
2018-02-04T13:02:11.578Z,4.10
2018-02-04T13:04:40.432Z,4.10
2018-02-04T13:07:10.038Z,4.00
2018-02-04T13:09:39.747Z,3.90
2018-02-04T13:12:09.340Z,3.90
2018-02-04T13:14:38.446Z,3.80
2018-02-04T13:17:08.063Z,4.00
2018-02-04T13:19:36.921Z,4.00
2018-02-04T13:22:05.755Z,4.10
2018-02-04T13:24:34.613Z,4.20
2018-02-04T13:27:04.586Z,4.30
2018-02-04T13:29:33.425Z,4.20
2018-02-04T13:32:03.054Z,4.30
2018-02-04T13:34:32.666Z,4.20
2018-02-04T13:37:02.274Z,4.10
2018-02-04T13:39:31.130Z,4.10
2018-02-04T13:42:00.764Z,4.10
2018-02-04T13:44:29.633Z,4.00
2018-02-04T13:46:59.250Z,4.30
2018-02-04T13:49:28.141Z,4.20
2018-02-04T13:51:57.755Z,4.50
2018-02-04T13:54:26.602Z,4.40
2018-02-04T13:56:56.031Z,4.60
2018-02-04T13:59:24.920Z,4.60
2018-02-04T14:01:53.762Z,4.60
2018-02-04T14:04:22.626Z,4.60
2018-02-04T14:06:52.232Z,4.60
2018-02-04T14:09:21.876Z,4.60
2018-02-04T14:11:50.717Z,4.60
2018-02-04T14:14:20.365Z,4.50
2018-02-04T14:16:49.256Z,4.40
2018-02-04T14:19:18.122Z,4.40
2018-02-04T14:21:47.764Z,4.30
2018-02-04T14:24:16.590Z,4.20
2018-02-04T14:26:45.462Z,4.30
2018-02-04T14:29:15.205Z,4.20
2018-02-04T14:31:44.015Z,4.20
2018-02-04T14:34:12.877Z,4.10
2018-02-04T14:36:41.751Z,4.10
2018-02-04T14:39:10.610Z,3.90
2018-02-04T14:41:39.446Z,3.80
2018-02-04T14:44:08.326Z,3.80
2018-02-04T14:46:37.188Z,3.80
2018-02-04T14:49:06.795Z,3.80
2018-02-04T14:51:35.651Z,3.80
2018-02-04T14:54:04.542Z,3.90
2018-02-04T14:56:33.415Z,3.90
2018-02-04T14:59:02.261Z,4.00
2018-02-04T15:01:31.880Z,3.90
2018-02-04T15:04:01.492Z,3.80
2018-02-04T15:06:31.119Z,3.80
2018-02-04T15:09:00.742Z,3.80
2018-02-04T15:11:29.614Z,3.80
2018-02-04T15:13:59.216Z,3.80
2018-02-04T15:16:28.833Z,3.80
2018-02-04T15:18:57.686Z,3.70
2018-02-04T15:21:27.373Z,3.80
2018-02-04T15:23:56.218Z,3.80
2018-02-04T15:26:25.095Z,3.80
2018-02-04T15:28:54.713Z,3.80
2018-02-04T15:31:23.631Z,3.80
2018-02-04T15:33:52.482Z,3.80
2018-02-04T15:36:22.171Z,3.70
2018-02-04T15:38:51.817Z,3.70
2018-02-04T15:41:20.683Z,3.70
2018-02-04T15:43:50.303Z,3.70
2018-02-04T15:46:19.211Z,3.70
2018-02-04T15:48:48.845Z,3.80
2018-02-04T15:51:17.699Z,3.70
2018-02-04T15:53:46.541Z,3.80
2018-02-04T15:56:16.182Z,3.80
2018-02-04T15:58:45.016Z,3.80
2018-02-04T16:01:13.875Z,3.80
2018-02-04T16:03:42.731Z,3.70
2018-02-04T16:06:12.166Z,3.70
2018-02-04T16:08:41.023Z,3.70
2018-02-04T16:11:10.662Z,3.60
2018-02-04T16:13:39.505Z,3.50
2018-02-04T16:16:08.718Z,3.60
2018-02-04T16:18:38.343Z,3.50
2018-02-04T16:21:07.173Z,3.50
2018-02-04T16:23:36.843Z,3.40
2018-02-04T16:26:05.714Z,3.40
2018-02-04T16:28:34.559Z,3.40
2018-02-04T16:31:03.433Z,3.30
2018-02-04T16:33:32.315Z,3.30
2018-02-04T16:36:01.176Z,3.30
2018-02-04T16:38:30.803Z,3.30
2018-02-04T16:40:59.655Z,3.30
2018-02-04T16:43:29.278Z,3.20
2018-02-04T16:45:58.118Z,3.20
2018-02-04T16:48:27.755Z,3.30
2018-02-04T16:50:57.388Z,3.30
2018-02-04T16:53:26.227Z,3.30
2018-02-04T16:55:55.097Z,3.30
2018-02-04T16:58:23.967Z,3.30
2018-02-04T17:00:53.608Z,3.30
2018-02-04T17:03:23.221Z,3.30
2018-02-04T17:05:52.109Z,3.30
2018-02-04T17:08:20.952Z,3.30
2018-02-04T17:10:50.579Z,3.30
2018-02-04T17:13:19.446Z,3.20
2018-02-04T17:15:49.062Z,3.20
2018-02-04T17:18:18.705Z,3.20
2018-02-04T17:20:47.547Z,3.10
2018-02-04T17:23:16.417Z,3.20
2018-02-04T17:25:45.280Z,3.20
2018-02-04T17:28:14.159Z,3.20
2018-02-04T17:30:42.994Z,3.20
2018-02-04T17:33:11.865Z,3.20
2018-02-04T17:35:40.706Z,3.20
2018-02-04T17:38:09.586Z,3.10
2018-02-04T17:40:39.292Z,3.20
2018-02-04T17:43:08.989Z,3.30
2018-02-04T17:45:37.806Z,3.20
2018-02-04T17:48:06.666Z,3.20
2018-02-04T17:50:35.562Z,3.20
2018-02-04T17:53:04.415Z,3.10
2018-02-04T17:55:33.295Z,3.10
2018-02-04T17:58:02.151Z,3.10
2018-02-04T18:13:31.037Z,3.10
2018-02-04T18:16:02.877Z,2.70
2018-02-04T18:18:31.954Z,2.80
2018-02-04T18:21:00.850Z,2.80
2018-02-04T18:23:29.683Z,2.90
2018-02-04T18:25:58.551Z,2.90
2018-02-04T18:28:28.780Z,2.90
2018-02-04T18:30:57.657Z,2.80
2018-02-04T18:33:27.313Z,2.80
2018-02-04T18:35:56.412Z,2.70
2018-02-04T18:38:25.299Z,2.80
2018-02-04T18:40:54.139Z,2.80
2018-02-04T18:43:23.766Z,2.80
2018-02-04T18:45:52.708Z,2.80
2018-02-04T18:48:21.568Z,2.90
2018-02-04T18:50:51.256Z,2.80
2018-02-04T18:53:20.890Z,2.80
2018-02-04T18:55:50.006Z,2.70
2018-02-04T18:58:19.570Z,2.70
2018-02-04T19:00:48.435Z,2.70
2018-02-04T19:03:17.310Z,2.80
2018-02-04T19:05:46.162Z,2.60
2018-02-04T19:08:15.791Z,2.60
2018-02-04T19:10:44.781Z,2.50
2018-02-04T19:13:13.655Z,2.60
2018-02-04T19:15:43.286Z,2.50
2018-02-04T19:18:12.118Z,2.40
2018-02-04T19:20:40.993Z,2.50
2018-02-04T19:23:09.802Z,2.50
2018-02-04T19:25:39.324Z,2.50
2018-02-04T19:28:08.184Z,2.50
2018-02-04T19:30:37.036Z,2.50
2018-02-04T19:33:06.248Z,2.40
2018-02-04T19:35:35.228Z,2.40
2018-02-04T19:38:04.097Z,2.30
2018-02-04T19:40:33.731Z,2.40
2018-02-04T19:43:08.495Z,2.30
2018-02-04T19:45:38.997Z,2.40
2018-02-04T19:48:08.097Z,2.40
2018-02-04T19:50:37.578Z,2.40
2018-02-04T19:53:07.197Z,2.30
2018-02-04T19:55:44.474Z,2.20
2018-02-04T19:58:14.950Z,2.20
2018-02-04T20:00:45.124Z,2.20
2018-02-04T20:03:17.527Z,2.20
2018-02-04T20:05:46.458Z,2.20
2018-02-04T20:08:15.286Z,2.20
2018-02-04T20:10:44.142Z,2.20
2018-02-04T20:13:13.762Z,2.20
2018-02-04T20:15:42.613Z,2.20
2018-02-04T20:18:11.498Z,2.30
2018-02-04T20:20:40.340Z,2.30
2018-02-04T20:23:12.664Z,2.30
2018-02-04T20:25:45.027Z,2.30
2018-02-04T20:28:14.466Z,2.30
2018-02-04T20:30:43.316Z,2.30
2018-02-04T20:33:20.509Z,2.30
2018-02-04T20:35:49.394Z,2.30
2018-02-04T20:38:19.972Z,2.30
2018-02-04T20:40:49.694Z,2.40
2018-02-04T20:43:18.518Z,2.30
2018-02-04T20:45:47.386Z,2.40
2018-02-04T20:48:16.270Z,2.40
2018-02-04T20:50:45.120Z,2.40
2018-02-04T20:53:14.433Z,2.40
2018-02-04T20:55:43.422Z,2.30
2018-02-04T20:58:12.263Z,2.30
2018-02-04T21:00:41.157Z,2.30
2018-02-04T21:05:57.102Z,2.20
2018-02-04T21:08:32.309Z,2.20
2018-02-04T21:11:02.415Z,2.10
2018-02-04T21:13:31.306Z,2.10
2018-02-04T21:16:00.151Z,2.20
2018-02-04T21:18:29.776Z,2.20
2018-02-04T21:20:59.406Z,2.30
2018-02-04T21:23:28.250Z,2.20
2018-02-04T21:25:57.915Z,2.20
2018-02-04T21:28:26.767Z,2.20
2018-02-04T21:30:56.395Z,2.30
2018-02-04T21:33:25.290Z,2.20
2018-02-04T21:35:54.182Z,2.30
2018-02-04T21:38:23.012Z,2.30
2018-02-04T21:40:51.864Z,2.40
2018-02-04T21:43:20.711Z,2.40
2018-02-04T21:45:50.362Z,2.30
2018-02-04T21:48:19.203Z,2.30
2018-02-04T21:50:48.826Z,2.40
2018-02-04T21:53:18.974Z,2.40
2018-02-04T21:55:47.828Z,2.30
2018-02-04T21:58:16.685Z,2.30
2018-02-04T22:00:46.334Z,2.30
2018-02-04T22:03:15.222Z,2.20
2018-02-04T22:05:44.084Z,2.30
2018-02-04T22:08:13.713Z,2.30
2018-02-04T22:10:43.368Z,2.40
2018-02-04T22:13:12.220Z,2.30
2018-02-04T22:15:41.062Z,2.40
2018-02-04T22:18:10.718Z,2.40
2018-02-04T22:20:39.591Z,2.40
2018-02-04T22:23:08.471Z,2.50
2018-02-04T22:25:37.274Z,2.50
2018-02-04T22:28:06.136Z,2.60
2018-02-04T22:30:35.774Z,2.50
2018-02-04T22:33:04.744Z,2.40
2018-02-04T22:35:33.615Z,2.40
2018-02-04T22:38:02.439Z,2.30
2018-02-04T22:40:31.329Z,2.40
2018-02-04T22:43:00.187Z,2.30
2018-02-04T22:45:29.823Z,2.40
2018-02-04T22:47:58.673Z,2.30
2018-02-04T22:50:28.314Z,2.30
2018-02-04T22:52:57.522Z,2.20
2018-02-04T22:55:26.400Z,2.20
2018-02-04T22:57:55.271Z,2.10
2018-02-04T23:00:24.116Z,2.20
2018-02-04T23:02:53.718Z,2.30
2018-02-04T23:05:23.361Z,2.30
2018-02-04T23:07:52.222Z,2.30
2018-02-04T23:10:21.851Z,2.30
2018-02-04T23:12:50.678Z,2.30
2018-02-04T23:15:19.515Z,2.30
2018-02-04T23:17:49.155Z,2.40
2018-02-04T23:20:18.011Z,2.30
2018-02-04T23:22:47.605Z,2.40
2018-02-04T23:25:16.484Z,2.30
2018-02-04T23:27:45.301Z,2.40
2018-02-04T23:30:14.920Z,2.40
2018-02-04T23:32:44.611Z,2.50
2018-02-04T23:35:14.267Z,2.50
2018-02-04T23:37:43.111Z,2.50
2018-02-04T23:40:12.729Z,2.40
2018-02-04T23:42:41.582Z,2.40
2018-02-04T23:45:10.429Z,2.40
2018-02-04T23:47:39.320Z,2.40
2018-02-04T23:50:08.148Z,2.40
2018-02-04T23:52:37.092Z,2.40
2018-02-04T23:55:06.765Z,2.30
2018-02-04T23:57:35.703Z,2.30
